METAR Data
IDs: Format: Raw Decoded Include TAF

Data at: 0130 UTC 01 Nov 2020

PAMC 312304Z 00000KT 10SM SCT039 M12/M13 A3005